createdAt,value
2019-03-21T00:00:56.342Z,4.20
2019-03-21T00:03:26.743Z,6.35
2019-03-21T00:06:09.659Z,6.80
2019-03-21T00:08:39.071Z,4.93
2019-03-21T00:15:03.089Z,6.10
2019-03-21T00:20:29.137Z,5.75
2019-03-21T00:25:52.694Z,5.20
2019-03-21T00:28:22.103Z,5.40
2019-03-21T00:30:58.938Z,5.13
2019-03-21T00:33:31.710Z,5.55
2019-03-21T00:36:04.819Z,7.47
2019-03-21T00:38:38.875Z,5.67
2019-03-21T00:41:09.583Z,5.40
2019-03-21T00:44:03.718Z,5.40
2019-03-21T00:46:36.469Z,5.62
2019-03-21T00:49:09.329Z,6.15
2019-03-21T00:52:04.543Z,4.80
2019-03-21T00:54:35.482Z,6.33
2019-03-21T00:57:07.294Z,4.67
2019-03-21T00:59:40.201Z,5.20
2019-03-21T01:02:10.785Z,4.93
2019-03-21T01:04:42.133Z,5.70
2019-03-21T01:07:21.665Z,5.77
2019-03-21T01:09:58.479Z,6.20
2019-03-21T01:13:07.717Z,6.42
2019-03-21T01:15:41.401Z,7.97
2019-03-21T01:18:13.527Z,7.42
2019-03-21T01:27:56.875Z,7.45
2019-03-21T01:30:27.406Z,5.42
2019-03-21T01:32:56.882Z,4.90
2019-03-21T01:36:19.678Z,4.62
2019-03-21T01:38:50.030Z,8.43
2019-03-21T01:41:23.392Z,4.80
2019-03-21T01:44:00.722Z,4.42
2019-03-21T01:46:30.134Z,6.93
2019-03-21T01:48:59.221Z,4.65
2019-03-21T01:51:35.229Z,5.57
2019-03-21T01:54:04.443Z,6.10
2019-03-21T01:57:00.660Z,5.45
2019-03-21T01:59:29.708Z,4.83
2019-03-21T02:01:58.975Z,5.25
2019-03-21T02:05:19.396Z,5.25
2019-03-21T02:07:48.720Z,4.75
2019-03-21T02:10:18.354Z,6.22
2019-03-21T02:12:53.717Z,5.72
2019-03-21T02:15:24.929Z,6.35
2019-03-21T02:18:17.527Z,6.40
2019-03-21T02:20:49.685Z,5.35
2019-03-21T02:23:18.943Z,5.42
2019-03-21T02:26:27.143Z,5.53
2019-03-21T02:28:56.202Z,6.30
2019-03-21T02:31:25.288Z,5.25
2019-03-21T02:34:00.733Z,4.90
2019-03-21T02:36:29.951Z,4.92
2019-03-21T02:39:35.115Z,5.62
2019-03-21T02:42:04.089Z,4.15
2019-03-21T02:44:35.565Z,4.70
2019-03-21T02:47:40.723Z,5.35
2019-03-21T02:50:12.859Z,8.08
2019-03-21T02:52:41.942Z,6.30
2019-03-21T02:55:18.452Z,5.70
2019-03-21T02:57:47.462Z,6.70
2019-03-21T03:01:10.588Z,6.62
2019-03-21T03:03:39.677Z,6.25
2019-03-21T03:06:08.679Z,5.12
2019-03-21T03:09:13.578Z,6.12
2019-03-21T03:11:42.975Z,6.45
2019-03-21T03:14:12.037Z,6.87
2019-03-21T03:16:48.444Z,8.83
2019-03-21T03:19:17.550Z,6.95
2019-03-21T03:22:34.585Z,7.85
2019-03-21T03:25:03.570Z,6.87
2019-03-21T03:27:32.691Z,6.75
2019-03-21T03:30:02.056Z,7.70
2019-03-21T03:32:31.139Z,5.60
2019-03-21T03:35:00.905Z,5.92
2019-03-21T03:37:37.511Z,5.78
2019-03-21T03:40:09.471Z,9.10
2019-03-21T03:43:04.442Z,7.87
2019-03-21T03:45:41.130Z,7.50
2019-03-21T03:48:10.566Z,6.65
2019-03-21T03:51:22.078Z,7.08
2019-03-21T03:53:51.249Z,8.10
2019-03-21T03:56:20.493Z,6.78
2019-03-21T03:59:02.320Z,6.78
2019-03-21T04:01:31.462Z,6.17
2019-03-21T04:04:48.587Z,8.58
2019-03-21T04:07:17.674Z,6.20
2019-03-21T04:09:46.667Z,6.70
2019-03-21T04:12:45.498Z,6.97
2019-03-21T04:15:15.679Z,6.53
2019-03-21T04:17:47.192Z,6.25
2019-03-21T04:20:29.037Z,9.58
2019-03-21T04:22:58.150Z,8.63
2019-03-21T04:25:52.743Z,7.83
2019-03-21T04:28:21.693Z,7.42
2019-03-21T04:30:50.789Z,10.38
2019-03-21T04:34:03.858Z,8.53
2019-03-21T04:36:32.965Z,9.78
2019-03-21T04:39:02.016Z,10.65
2019-03-21T04:41:38.014Z,9.70
2019-03-21T04:44:07.232Z,9.70
2019-03-21T04:47:03.440Z,10.50
2019-03-21T04:49:32.466Z,7.95
2019-03-21T04:52:01.818Z,9.35
2019-03-21T04:55:19.079Z,11.18
2019-03-21T04:57:49.098Z,11.03
2019-03-21T05:00:58.816Z,10.85
2019-03-21T05:03:32.243Z,8.78
2019-03-21T05:06:01.550Z,12.33
2019-03-21T05:08:30.934Z,9.55
2019-03-21T05:11:01.440Z,8.98
2019-03-21T05:13:32.220Z,12.88
2019-03-21T05:16:14.660Z,10.40
2019-03-21T05:18:43.471Z,10.90
2019-03-21T05:21:58.851Z,9.78
2019-03-21T05:24:29.359Z,9.73
2019-03-21T05:27:02.434Z,11.78
2019-03-21T05:30:03.397Z,10.43
2019-03-21T05:32:33.388Z,10.43
2019-03-21T05:35:03.632Z,11.43
2019-03-21T05:37:40.701Z,11.70
2019-03-21T05:40:24.290Z,9.98
2019-03-21T05:42:57.011Z,9.90
2019-03-21T05:45:34.570Z,10.95
2019-03-21T05:48:14.155Z,11.63
2019-03-21T05:51:36.051Z,14.65
2019-03-21T05:54:06.384Z,10.30
2019-03-21T05:57:11.929Z,11.05
2019-03-21T05:59:54.272Z,12.25
2019-03-21T06:02:22.190Z,9.70
2019-03-21T06:12:03.450Z,10.30
2019-03-21T06:14:36.893Z,10.08
2019-03-21T06:17:09.925Z,13.50
2019-03-21T06:20:04.232Z,9.08
2019-03-21T06:23:24.533Z,11.15
2019-03-21T06:26:15.672Z,12.15
2019-03-21T06:29:21.007Z,11.33
2019-03-21T06:31:50.435Z,11.95
2019-03-21T06:34:56.492Z,11.20
2019-03-21T06:37:28.713Z,13.15
2019-03-21T06:40:39.373Z,13.22
2019-03-21T06:43:08.639Z,9.33
2019-03-21T06:46:32.155Z,10.80
2019-03-21T06:49:01.470Z,12.20
2019-03-21T06:51:31.055Z,13.00
2019-03-21T06:54:02.924Z,10.40
2019-03-21T06:56:33.440Z,14.50
2019-03-21T07:13:12.198Z,13.68
2019-03-21T07:15:47.794Z,14.40
2019-03-21T07:18:17.199Z,9.40
2019-03-21T07:21:30.121Z,10.17
2019-03-21T07:24:00.313Z,11.93
2019-03-21T07:34:02.082Z,9.93
2019-03-21T07:36:32.012Z,10.27
2019-03-21T07:39:07.452Z,11.50
2019-03-21T07:42:07.114Z,11.33
2019-03-21T07:44:47.021Z,10.20
2019-03-21T07:54:50.158Z,14.87
2019-03-21T07:57:23.191Z,13.00
2019-03-21T07:59:54.129Z,11.73
2019-03-21T08:16:29.633Z,9.87
2019-03-21T08:19:05.309Z,8.20
2019-03-21T08:29:11.932Z,9.93
2019-03-21T08:31:46.221Z,11.27
2019-03-21T08:35:18.155Z,7.50
2019-03-21T08:52:10.321Z,8.87
2019-03-21T08:54:41.490Z,8.10
2019-03-21T08:57:45.654Z,7.97
2019-03-21T09:00:18.378Z,8.33
2019-03-21T09:03:02.079Z,5.93
2019-03-21T09:05:37.880Z,6.03
2019-03-21T09:08:55.011Z,5.67
2019-03-21T09:11:44.197Z,6.87
2019-03-21T09:16:52.642Z,5.37
2019-03-21T09:19:59.611Z,4.60
2019-03-21T09:22:35.360Z,6.73
2019-03-21T09:26:10.102Z,4.10
2019-03-21T09:28:45.243Z,3.53
2019-03-21T09:32:00.285Z,4.17
2019-03-21T09:34:45.078Z,7.00
2019-03-21T09:38:01.334Z,5.07
2019-03-21T09:50:29.624Z,6.50
2019-03-21T09:53:18.880Z,4.20
2019-03-21T09:56:42.955Z,5.77
2019-03-21T09:59:20.065Z,5.83
2019-03-21T10:02:23.321Z,4.43
2019-03-21T10:05:02.653Z,6.67
2019-03-21T10:08:17.174Z,4.77
2019-03-21T10:10:45.450Z,5.87
2019-03-21T10:13:56.642Z,5.43
2019-03-21T10:16:31.270Z,4.73
2019-03-21T10:19:17.078Z,4.80
2019-03-21T10:21:50.381Z,4.33
2019-03-21T10:24:23.831Z,4.83
2019-03-21T10:26:57.060Z,6.27
2019-03-21T10:29:27.824Z,7.00
2019-03-21T10:32:01.403Z,3.60
2019-03-21T10:34:32.904Z,3.53
2019-03-21T10:37:06.672Z,6.67
2019-03-21T10:39:40.339Z,6.57
2019-03-21T10:42:14.100Z,4.77
2019-03-21T10:45:06.679Z,4.73
2019-03-21T10:47:31.444Z,9.77
2019-03-21T10:50:06.310Z,13.33
2019-03-21T10:52:54.383Z,6.73
2019-03-21T10:55:41.710Z,5.20
2019-03-21T10:58:23.170Z,3.63
2019-03-21T11:00:55.133Z,4.63
2019-03-21T11:11:10.474Z,3.83
2019-03-21T11:13:42.302Z,4.67
2019-03-21T11:16:16.392Z,10.03
2019-03-21T11:18:45.208Z,3.10
2019-03-21T11:21:21.437Z,3.13
2019-03-21T11:42:11.110Z,6.50
2019-03-21T11:55:24.377Z,8.17
2019-03-21T11:58:21.117Z,9.23
2019-03-21T12:07:55.902Z,11.90
2019-03-21T12:10:30.841Z,7.63
2019-03-21T12:13:44.137Z,9.90
2019-03-21T12:16:19.678Z,9.77
2019-03-21T12:25:42.103Z,10.63
2019-03-21T12:28:16.893Z,9.50
2019-03-21T12:31:26.632Z,8.03
2019-03-21T12:34:10.131Z,10.47
2019-03-21T12:50:54.609Z,10.20
2019-03-21T12:53:53.768Z,11.77
2019-03-21T12:59:46.148Z,11.20
2019-03-21T13:02:31.524Z,12.73
2019-03-21T13:05:03.096Z,12.50
2019-03-21T13:07:33.490Z,9.87
2019-03-21T13:10:09.800Z,9.70
2019-03-21T13:29:53.224Z,8.77
2019-03-21T13:32:23.856Z,11.50
2019-03-21T13:41:54.796Z,5.93
2019-03-21T13:44:32.144Z,7.77
2019-03-21T13:47:29.403Z,8.97
2019-03-21T13:50:11.061Z,7.77
2019-03-21T14:00:04.898Z,8.48
2019-03-21T14:02:38.339Z,7.53
2019-03-21T14:06:03.416Z,7.73
2019-03-21T14:09:12.858Z,7.47
2019-03-21T14:12:33.399Z,7.80
2019-03-21T14:15:26.731Z,9.90
2019-03-21T14:18:01.591Z,6.80
2019-03-21T14:20:35.639Z,7.93
2019-03-21T14:24:06.349Z,7.37
2019-03-21T14:26:48.851Z,6.07
2019-03-21T14:29:43.895Z,6.67
2019-03-21T14:32:25.113Z,8.13
2019-03-21T14:35:11.949Z,7.00
2019-03-21T14:37:47.334Z,6.10
2019-03-21T14:40:48.844Z,6.10
2019-03-21T14:43:27.056Z,5.97
2019-03-21T14:46:48.481Z,5.40
2019-03-21T14:49:17.703Z,5.87
2019-03-21T14:52:02.182Z,5.43
2019-03-21T14:54:33.119Z,5.83
2019-03-21T15:03:50.694Z,5.77
2019-03-21T15:06:20.874Z,5.97
2019-03-21T15:15:53.766Z,4.50
2019-03-21T15:18:22.826Z,6.10
2019-03-21T15:21:50.518Z,6.20
2019-03-21T15:24:26.864Z,5.47
2019-03-21T15:40:53.469Z,5.13
2019-03-21T15:43:23.874Z,4.80
2019-03-21T15:52:59.730Z,4.53
2019-03-21T15:55:32.019Z,6.83
2019-03-21T15:58:32.674Z,6.47
2019-03-21T16:01:03.871Z,6.43
2019-03-21T16:10:23.800Z,8.53
2019-03-21T16:12:55.430Z,9.43
2019-03-21T16:16:01.853Z,10.97
2019-03-21T16:18:33.674Z,7.87
2019-03-21T16:28:09.952Z,9.57
2019-03-21T16:30:48.393Z,9.87
2019-03-21T16:33:17.805Z,13.10
2019-03-21T16:35:56.406Z,10.77
2019-03-21T16:38:32.172Z,12.13
2019-03-21T16:41:20.253Z,13.13
2019-03-21T16:44:20.820Z,13.27
2019-03-21T16:46:58.776Z,13.97
2019-03-21T16:49:39.709Z,10.87
2019-03-21T16:52:28.817Z,15.45
2019-03-21T16:55:11.214Z,13.50
2019-03-21T16:57:45.079Z,15.08
2019-03-21T17:00:30.098Z,14.27
2019-03-21T17:03:10.998Z,10.60
2019-03-21T17:05:54.619Z,14.53
2019-03-21T17:08:47.551Z,13.17
2019-03-21T17:11:22.686Z,12.13
2019-03-21T17:19:37.277Z,12.23
2019-03-21T17:22:27.112Z,12.10
2019-03-21T17:25:16.838Z,11.33
2019-03-21T17:28:11.096Z,10.53
2019-03-21T17:30:57.343Z,11.97
2019-03-21T17:33:43.237Z,11.23
2019-03-21T17:36:16.884Z,9.37
2019-03-21T17:39:06.791Z,12.30
2019-03-21T17:41:45.328Z,12.13
2019-03-21T17:44:21.405Z,10.80
2019-03-21T17:47:07.004Z,11.17
2019-03-21T17:50:05.101Z,10.73
2019-03-21T17:52:38.107Z,8.13
2019-03-21T17:55:14.565Z,10.10
2019-03-21T17:57:50.690Z,11.43
2019-03-21T18:00:27.362Z,11.83
2019-03-21T18:06:05.665Z,10.17
2019-03-21T18:08:38.846Z,10.40
2019-03-21T18:11:09.772Z,9.77
2019-03-21T18:13:41.011Z,12.13
2019-03-21T18:16:11.506Z,15.90
2019-03-21T18:18:47.653Z,13.03
2019-03-21T18:21:19.388Z,11.40
2019-03-21T18:23:49.910Z,10.17
2019-03-21T18:26:20.015Z,9.20
2019-03-21T18:28:58.611Z,10.40
2019-03-21T18:31:28.087Z,9.60
2019-03-21T18:33:57.500Z,9.67
2019-03-21T18:36:27.230Z,10.50
2019-03-21T18:38:59.889Z,13.67
2019-03-21T18:41:29.627Z,13.63
2019-03-21T18:44:18.805Z,15.63
2019-03-21T18:46:48.003Z,16.23
2019-03-21T18:49:21.588Z,16.17
2019-03-21T18:51:51.101Z,16.97
2019-03-21T18:54:20.905Z,15.53
2019-03-21T18:56:58.576Z,16.47
2019-03-21T18:59:33.557Z,15.77
2019-03-21T19:02:09.727Z,19.00
2019-03-21T19:04:39.061Z,17.13
2019-03-21T19:07:08.871Z,13.87
2019-03-21T19:09:40.646Z,12.70
2019-03-21T19:12:12.322Z,12.67
2019-03-21T19:15:04.651Z,14.90
2019-03-21T19:17:38.571Z,11.67
2019-03-21T19:20:17.099Z,12.00
2019-03-21T19:22:47.794Z,11.77
2019-03-21T19:25:19.626Z,13.40
2019-03-21T19:27:51.759Z,12.33
2019-03-21T19:30:22.379Z,13.37
2019-03-21T19:33:07.232Z,13.80
2019-03-21T19:36:09.249Z,10.47
2019-03-21T19:38:39.010Z,14.03
2019-03-21T19:41:10.220Z,10.57
2019-03-21T19:43:47.433Z,8.47
2019-03-21T19:46:21.443Z,10.93
2019-03-21T19:48:53.372Z,10.13
2019-03-21T19:51:26.437Z,10.20
2019-03-21T19:54:00.593Z,9.53
2019-03-21T19:56:30.027Z,8.93
2019-03-21T19:59:05.441Z,8.57
2019-03-21T20:01:34.427Z,11.23
2019-03-21T20:04:03.697Z,9.97
2019-03-21T20:06:32.743Z,11.17
2019-03-21T20:09:03.683Z,12.13
2019-03-21T20:11:36.254Z,11.43
2019-03-21T20:16:59.209Z,14.67
2019-03-21T20:19:32.733Z,8.20
2019-03-21T20:25:42.226Z,8.53
2019-03-21T20:28:11.214Z,7.87
2019-03-21T20:30:40.507Z,8.53
2019-03-21T20:33:54.585Z,7.57
2019-03-21T20:36:25.087Z,8.37
2019-03-21T20:39:48.920Z,8.60
2019-03-21T20:42:21.028Z,11.67
2019-03-21T20:45:27.387Z,11.63
2019-03-21T20:48:00.276Z,9.40
2019-03-21T20:50:29.230Z,9.47
2019-03-21T20:53:36.311Z,9.10
2019-03-21T20:56:05.238Z,10.13
2019-03-21T20:58:37.870Z,6.80
2019-03-21T21:01:14.727Z,8.67
2019-03-21T21:03:43.831Z,8.67
2019-03-21T21:06:17.701Z,9.63
2019-03-21T21:08:50.651Z,10.87
2019-03-21T21:11:21.601Z,8.73
2019-03-21T21:18:22.952Z,10.60
2019-03-21T21:24:43.143Z,10.57
2019-03-21T21:27:14.938Z,10.77
2019-03-21T21:36:50.019Z,9.43
2019-03-21T21:39:21.011Z,10.57
2019-03-21T21:41:49.997Z,12.17
2019-03-21T21:45:07.267Z,16.50
2019-03-21T21:47:38.792Z,11.80
2019-03-21T21:56:38.763Z,10.90
2019-03-21T21:59:07.723Z,11.33
2019-03-21T22:01:36.822Z,11.20
2019-03-21T22:04:05.807Z,12.53
2019-03-21T22:06:35.113Z,10.67
2019-03-21T22:09:14.230Z,12.83
2019-03-21T22:11:43.413Z,9.70
2019-03-21T22:14:12.685Z,7.80
2019-03-21T22:16:44.423Z,11.93
2019-03-21T22:19:13.473Z,9.50
2019-03-21T22:22:27.539Z,11.83
2019-03-21T22:24:57.013Z,12.23
2019-03-21T22:27:26.127Z,9.80
2019-03-21T22:30:37.449Z,12.70
2019-03-21T22:33:10.955Z,11.93
2019-03-21T22:36:33.305Z,9.90
2019-03-21T22:38:19.387Z,11.87
2019-03-21T22:40:55.772Z,10.60
2019-03-21T22:43:25.884Z,10.93
2019-03-21T22:45:55.051Z,12.97
2019-03-21T22:48:25.542Z,10.33
2019-03-21T22:51:08.302Z,12.30
2019-03-21T22:53:48.812Z,7.97
2019-03-21T22:56:42.265Z,12.63
2019-03-21T22:59:13.335Z,12.30
2019-03-21T23:01:42.281Z,13.17
2019-03-21T23:05:02.527Z,14.77
2019-03-21T23:07:41.642Z,14.60
2019-03-21T23:10:14.179Z,10.50
2019-03-21T23:12:43.387Z,14.07
2019-03-21T23:15:13.471Z,15.17
2019-03-21T23:18:15.919Z,14.23
2019-03-21T23:20:46.147Z,13.27
2019-03-21T23:23:16.136Z,14.20
2019-03-21T23:25:46.710Z,13.20
2019-03-21T23:28:16.025Z,16.60
2019-03-21T23:30:46.753Z,13.67
2019-03-21T23:33:22.882Z,14.60
2019-03-21T23:35:53.184Z,15.30
2019-03-21T23:38:24.758Z,16.53
2019-03-21T23:40:59.749Z,15.17
2019-03-21T23:43:32.242Z,13.33
2019-03-21T23:46:10.689Z,14.03
2019-03-21T23:48:44.033Z,15.90
2019-03-21T23:51:14.255Z,15.33
2019-03-21T23:53:46.370Z,13.73
2019-03-21T23:56:20.138Z,15.37
2019-03-21T23:58:50.433Z,14.83
